createdAt,value
2019-06-26T00:00:18.672Z,102036.29
2019-06-26T00:02:44.897Z,102027.65
2019-06-26T00:05:10.983Z,102031.44
2019-06-26T00:07:36.841Z,102037.42
2019-06-26T00:10:04.318Z,102033.56
2019-06-26T00:12:30.271Z,102042.30
2019-06-26T00:14:56.086Z,102043.61
2019-06-26T00:17:21.950Z,102040.18
2019-06-26T00:19:47.813Z,102034.36
2019-06-26T00:22:13.688Z,102039.45
2019-06-26T00:24:39.571Z,102043.70
2019-06-26T00:27:05.430Z,102045.05
2019-06-26T00:29:31.620Z,102045.95
2019-06-26T00:31:57.578Z,102048.83
2019-06-26T00:34:23.478Z,102056.72
2019-06-26T00:36:49.316Z,102057.63
2019-06-26T00:39:15.166Z,102051.11
2019-06-26T00:41:41.041Z,102062.61
2019-06-26T00:44:06.976Z,102064.52
2019-06-26T00:46:32.850Z,102061.54
2019-06-26T00:48:58.761Z,102060.23
2019-06-26T00:51:24.622Z,102062.59
2019-06-26T00:53:50.481Z,102068.48
2019-06-26T00:56:16.354Z,102066.75
2019-06-26T00:58:42.230Z,102061.46
2019-06-26T01:01:08.080Z,102071.81
2019-06-26T01:03:33.927Z,102068.73
2019-06-26T01:05:59.878Z,102066.77
2019-06-26T01:08:25.745Z,102068.25
2019-06-26T01:10:51.606Z,102065.56
2019-06-26T01:13:17.453Z,102061.84
2019-06-26T01:15:43.541Z,102063.48
2019-06-26T01:18:09.519Z,102074.05
2019-06-26T01:20:35.370Z,102077.23
2019-06-26T01:23:01.224Z,102074.91
2019-06-26T01:25:27.090Z,102083.91
2019-06-26T01:27:53.760Z,102081.66
2019-06-26T01:30:19.995Z,102073.08
2019-06-26T01:32:45.879Z,102086.73
2019-06-26T01:35:11.958Z,102078.66
2019-06-26T01:37:37.813Z,102077.83
2019-06-26T01:40:07.352Z,102084.12
2019-06-26T01:42:33.196Z,102083.48
2019-06-26T01:44:59.058Z,102089.11
2019-06-26T01:47:24.927Z,102094.21
2019-06-26T01:49:50.774Z,102099.80
2019-06-26T01:52:16.638Z,102094.97
2019-06-26T01:54:42.501Z,102091.16
2019-06-26T01:57:08.363Z,102095.66
2019-06-26T01:59:34.253Z,102100.70
2019-06-26T02:02:00.115Z,102103.87
2019-06-26T02:04:25.990Z,102097.86
2019-06-26T02:06:51.847Z,102104.43
2019-06-26T02:09:17.713Z,102102.88
2019-06-26T02:11:43.554Z,102101.14
2019-06-26T02:14:09.412Z,102107.39
2019-06-26T02:16:35.278Z,102113.90
2019-06-26T02:19:03.038Z,102123.22
2019-06-26T02:21:28.898Z,102128.75
2019-06-26T02:23:54.753Z,102125.00
2019-06-26T02:26:20.689Z,102114.74
2019-06-26T02:28:46.670Z,102118.22
2019-06-26T02:31:12.551Z,102114.91
2019-06-26T02:33:38.416Z,102130.48
2019-06-26T02:36:04.330Z,102130.40
2019-06-26T02:38:30.224Z,102123.36
2019-06-26T02:40:56.065Z,102126.13
2019-06-26T02:43:22.028Z,102136.94
2019-06-26T02:45:47.917Z,102138.07
2019-06-26T02:48:13.771Z,102139.73
2019-06-26T02:50:39.614Z,102143.64
2019-06-26T02:53:05.490Z,102152.26
2019-06-26T02:55:31.341Z,102156.03
2019-06-26T02:57:57.214Z,102159.48
2019-06-26T03:00:23.081Z,102163.38
2019-06-26T03:02:48.969Z,102167.73
2019-06-26T03:05:14.828Z,102167.45
2019-06-26T03:07:40.752Z,102172.63
2019-06-26T03:10:07.574Z,102174.20
2019-06-26T03:12:34.062Z,102175.03
2019-06-26T03:15:08.858Z,102175.03
2019-06-26T03:17:27.730Z,102183.27
2019-06-26T03:19:53.606Z,102190.83
2019-06-26T03:22:19.441Z,102191.13
2019-06-26T03:24:45.307Z,102190.59
2019-06-26T03:27:11.160Z,102190.41
2019-06-26T03:29:37.014Z,102205.52
2019-06-26T03:32:02.882Z,102202.75
2019-06-26T03:34:28.784Z,102206.08
2019-06-26T03:36:54.663Z,102214.59
2019-06-26T03:39:20.647Z,102221.37
2019-06-26T03:41:46.566Z,102226.06
2019-06-26T03:44:12.543Z,102230.70
2019-06-26T03:46:38.422Z,102225.95
2019-06-26T03:49:04.277Z,102231.52
2019-06-26T03:51:30.145Z,102235.34
2019-06-26T03:53:55.999Z,102237.94
2019-06-26T03:56:21.871Z,102238.95
2019-06-26T03:58:47.728Z,102243.61
2019-06-26T04:01:13.625Z,102240.91
2019-06-26T04:03:39.450Z,102244.00
2019-06-26T04:06:05.293Z,102249.80
2019-06-26T04:08:31.143Z,102242.83
2019-06-26T04:10:57.000Z,102244.95
2019-06-26T04:13:22.857Z,102248.95
2019-06-26T04:15:50.914Z,102257.39
2019-06-26T04:18:16.486Z,102259.86
2019-06-26T04:20:42.339Z,102252.03
2019-06-26T04:23:08.263Z,102250.34
2019-06-26T04:25:34.208Z,102260.06
2019-06-26T04:28:00.004Z,102262.85
2019-06-26T04:30:26.389Z,102265.28
2019-06-26T04:32:52.355Z,102277.95
2019-06-26T04:35:18.226Z,102275.53
2019-06-26T04:37:44.129Z,102280.56
2019-06-26T04:40:10.294Z,102276.88
2019-06-26T04:42:36.124Z,102283.46
2019-06-26T04:45:04.381Z,102282.45
2019-06-26T04:47:30.245Z,102281.42
2019-06-26T04:49:56.097Z,102286.12
2019-06-26T04:52:21.991Z,102286.31
2019-06-26T04:54:47.854Z,102299.16
2019-06-26T04:57:13.699Z,102293.99
2019-06-26T04:59:39.746Z,102301.82
2019-06-26T05:02:05.626Z,102291.70
2019-06-26T05:04:31.487Z,102285.44
2019-06-26T05:06:57.341Z,102294.17
2019-06-26T05:09:23.198Z,102292.59
2019-06-26T05:11:49.053Z,102289.66
2019-06-26T05:14:14.926Z,102284.53
2019-06-26T05:16:40.784Z,102289.84
2019-06-26T05:19:06.628Z,102285.34
2019-06-26T05:21:32.481Z,102301.34
2019-06-26T05:23:58.329Z,102298.08
2019-06-26T05:26:24.203Z,102305.38
2019-06-26T05:28:50.078Z,102311.80
2019-06-26T05:31:15.933Z,102318.00
2019-06-26T05:33:41.853Z,102319.93
2019-06-26T05:36:07.785Z,102314.94
2019-06-26T05:38:33.652Z,102324.73
2019-06-26T05:40:59.605Z,102321.59
2019-06-26T05:43:25.528Z,102323.66
2019-06-26T05:45:51.382Z,102327.83
2019-06-26T05:48:17.347Z,102326.44
2019-06-26T05:50:43.363Z,102324.32
2019-06-26T05:53:09.203Z,102333.50
2019-06-26T05:55:35.059Z,102322.61
2019-06-26T05:58:00.901Z,102320.78
2019-06-26T06:00:26.775Z,102329.64
2019-06-26T06:02:53.990Z,102325.81
2019-06-26T06:05:20.115Z,102320.28
2019-06-26T06:07:45.983Z,102322.83
2019-06-26T06:10:13.356Z,102327.25
2019-06-26T06:12:39.226Z,102330.09
2019-06-26T06:15:05.598Z,102330.09
2019-06-26T06:17:31.456Z,102340.97
2019-06-26T06:19:57.301Z,102332.91
2019-06-26T06:22:23.178Z,102348.21
2019-06-26T06:24:49.015Z,102354.79
2019-06-26T06:27:14.892Z,102351.44
2019-06-26T06:29:40.756Z,102354.08
2019-06-26T06:32:06.607Z,102355.80
2019-06-26T06:34:32.471Z,102361.05
2019-06-26T06:36:59.228Z,102356.90
2019-06-26T06:39:25.150Z,102381.04
2019-06-26T06:41:51.010Z,102381.04
2019-06-26T06:44:16.880Z,102366.84
2019-06-26T06:46:42.733Z,102373.29
2019-06-26T06:49:08.693Z,102367.52
2019-06-26T06:51:34.560Z,102374.66
2019-06-26T06:54:00.409Z,102379.72
2019-06-26T06:56:26.259Z,102370.14
2019-06-26T06:58:52.145Z,102377.73
2019-06-26T07:01:17.982Z,102382.47
2019-06-26T07:03:43.846Z,102388.50
2019-06-26T07:06:09.705Z,102389.85
2019-06-26T07:08:35.561Z,102398.94
2019-06-26T07:11:01.512Z,102406.23
2019-06-26T07:13:27.506Z,102411.20
2019-06-26T07:15:53.411Z,102412.05
2019-06-26T07:18:19.279Z,102417.88
2019-06-26T07:20:45.136Z,102424.84
2019-06-26T07:23:11.010Z,102423.70
2019-06-26T07:25:36.937Z,102434.53
2019-06-26T07:28:02.962Z,102441.03
2019-06-26T07:30:28.812Z,102447.08
2019-06-26T07:32:54.661Z,102447.45
2019-06-26T07:35:20.540Z,102450.81
2019-06-26T07:37:46.470Z,102450.86
2019-06-26T07:40:12.936Z,102461.41
2019-06-26T07:42:38.800Z,102456.21
2019-06-26T07:45:05.270Z,102451.42
2019-06-26T07:47:42.698Z,102449.84
2019-06-26T07:49:58.887Z,102459.44
2019-06-26T07:52:24.761Z,102462.01
2019-06-26T07:54:50.598Z,102468.08
2019-06-26T07:57:16.440Z,102465.61
2019-06-26T07:59:42.317Z,102473.52
2019-06-26T08:02:08.259Z,102480.55
2019-06-26T08:06:59.866Z,102475.59
2019-06-26T08:09:25.721Z,102463.73
2019-06-26T08:11:51.602Z,102465.55
2019-06-26T08:14:17.450Z,102476.84
2019-06-26T08:16:43.308Z,102480.42
2019-06-26T08:19:09.179Z,102482.72
2019-06-26T08:21:35.030Z,102482.95
2019-06-26T08:24:00.875Z,102493.48
2019-06-26T08:26:26.744Z,102486.53
2019-06-26T08:28:52.650Z,102487.82
2019-06-26T08:31:18.504Z,102494.17
2019-06-26T08:33:44.380Z,102491.66
2019-06-26T08:36:10.230Z,102492.13
2019-06-26T08:41:01.892Z,102483.50
2019-06-26T08:43:31.090Z,102480.41
2019-06-26T08:45:55.490Z,102483.05
2019-06-26T08:48:38.442Z,102485.88
2019-06-26T08:50:49.205Z,102489.23
2019-06-26T08:53:15.406Z,102483.23
2019-06-26T08:55:41.277Z,102488.74
2019-06-26T08:58:07.247Z,102488.52
2019-06-26T09:00:33.118Z,102492.91
2019-06-26T09:02:58.981Z,102503.09
2019-06-26T09:05:24.865Z,102492.04
2019-06-26T09:07:50.788Z,102494.17
2019-06-26T09:10:17.191Z,102496.39
2019-06-26T09:12:43.061Z,102491.12
2019-06-26T09:15:09.330Z,102495.27
2019-06-26T09:17:35.307Z,102505.78
2019-06-26T09:20:02.085Z,102501.91
2019-06-26T09:22:28.000Z,102511.85
2019-06-26T09:24:53.854Z,102517.19
2019-06-26T09:27:19.753Z,102511.52
2019-06-26T09:29:45.604Z,102521.58
2019-06-26T09:32:11.472Z,102528.25
2019-06-26T09:34:37.328Z,102519.09
2019-06-26T09:37:03.156Z,102521.11
2019-06-26T09:39:29.061Z,102519.50
2019-06-26T09:41:54.901Z,102527.09
2019-06-26T09:44:20.774Z,102505.47
2019-06-26T09:46:46.640Z,102514.28
2019-06-26T09:49:12.543Z,102512.29
2019-06-26T09:51:38.372Z,102515.36
2019-06-26T09:54:04.266Z,102516.02
2019-06-26T09:56:30.349Z,102520.52
2019-06-26T09:58:56.416Z,102521.97
2019-06-26T10:01:22.386Z,102532.02
2019-06-26T10:03:48.285Z,102538.06
2019-06-26T10:06:14.120Z,102541.36
2019-06-26T10:08:39.978Z,102536.25
2019-06-26T10:11:06.026Z,102536.72
2019-06-26T10:13:31.961Z,102529.86
2019-06-26T10:16:00.415Z,102533.91
2019-06-26T10:18:25.540Z,102538.16
2019-06-26T10:20:51.387Z,102537.80
2019-06-26T10:23:17.254Z,102548.44
2019-06-26T10:25:43.249Z,102552.39
2019-06-26T10:28:09.100Z,102553.73
2019-06-26T10:30:35.016Z,102559.34
2019-06-26T10:33:00.982Z,102553.30
2019-06-26T10:35:26.878Z,102565.87
2019-06-26T10:37:52.775Z,102563.11
2019-06-26T10:40:19.116Z,102568.70
2019-06-26T10:42:44.971Z,102568.63
2019-06-26T10:45:11.133Z,102565.64
2019-06-26T10:47:40.248Z,102561.80
2019-06-26T10:50:06.833Z,102571.44
2019-06-26T10:52:33.339Z,102573.73
2019-06-26T10:54:59.197Z,102573.77
2019-06-26T10:57:25.053Z,102574.73
2019-06-26T10:59:55.715Z,102570.02
2019-06-26T11:02:20.998Z,102569.98
2019-06-26T11:04:47.264Z,102563.53
2019-06-26T11:07:13.185Z,102575.73
2019-06-26T11:09:39.057Z,102576.33
2019-06-26T11:12:04.891Z,102579.88
2019-06-26T11:14:30.748Z,102568.89
2019-06-26T11:16:59.337Z,102566.56
2019-06-26T11:19:25.186Z,102567.88
2019-06-26T11:21:51.040Z,102561.80
2019-06-26T11:24:17.027Z,102565.30
2019-06-26T11:26:42.978Z,102556.12
2019-06-26T11:29:08.856Z,102562.52
2019-06-26T11:31:34.728Z,102567.72
2019-06-26T11:34:01.683Z,102576.63
2019-06-26T11:36:27.542Z,102567.63
2019-06-26T11:38:53.389Z,102574.38
2019-06-26T11:41:19.244Z,102576.32
2019-06-26T11:43:45.100Z,102574.45
2019-06-26T11:46:10.991Z,102570.58
2019-06-26T11:48:36.918Z,102571.53
2019-06-26T11:51:03.006Z,102564.97
2019-06-26T11:53:33.301Z,102563.57
2019-06-26T11:55:59.497Z,102554.16
2019-06-26T11:58:25.344Z,102562.06
2019-06-26T12:00:51.757Z,102552.05
2019-06-26T12:03:17.638Z,102551.97
2019-06-26T12:05:43.504Z,102552.27
2019-06-26T12:08:09.602Z,102558.87
2019-06-26T12:10:35.477Z,102568.48
2019-06-26T12:13:04.092Z,102566.55
2019-06-26T12:15:29.501Z,102564.83
2019-06-26T12:17:55.368Z,102563.09
2019-06-26T12:20:21.434Z,102560.91
2019-06-26T12:22:47.285Z,102561.59
2019-06-26T12:25:13.366Z,102560.84
2019-06-26T12:27:39.221Z,102564.52
2019-06-26T12:30:05.995Z,102557.84
2019-06-26T12:32:41.514Z,102569.99
2019-06-26T12:34:59.658Z,102562.22
2019-06-26T12:37:36.875Z,102567.45
2019-06-26T12:39:53.284Z,102564.27
2019-06-26T12:42:19.194Z,102575.31
2019-06-26T12:44:45.046Z,102573.80
2019-06-26T12:47:10.893Z,102569.05
2019-06-26T12:49:36.776Z,102575.66
2019-06-26T12:52:03.230Z,102581.59
2019-06-26T12:54:29.091Z,102575.94
2019-06-26T12:56:54.972Z,102575.42
2019-06-26T12:59:20.854Z,102581.41
2019-06-26T13:01:46.712Z,102584.94
2019-06-26T13:04:12.624Z,102589.25
2019-06-26T13:06:38.450Z,102597.34
2019-06-26T13:09:06.105Z,102582.05
2019-06-26T13:11:31.974Z,102585.31
2019-06-26T13:14:02.756Z,102583.77
2019-06-26T13:16:25.606Z,102580.69
2019-06-26T13:18:51.474Z,102582.86
2019-06-26T13:21:17.336Z,102577.76
2019-06-26T13:23:43.232Z,102580.02
2019-06-26T13:26:09.074Z,102577.37
2019-06-26T13:28:34.930Z,102570.11
2019-06-26T13:31:00.836Z,102573.34
2019-06-26T13:33:26.692Z,102575.98
2019-06-26T13:35:52.560Z,102575.22
2019-06-26T13:38:18.411Z,102565.34
2019-06-26T13:40:44.276Z,102569.84
2019-06-26T13:43:10.162Z,102563.90
2019-06-26T13:45:36.010Z,102566.77
2019-06-26T13:48:01.950Z,102563.38
2019-06-26T13:50:27.949Z,102566.13
2019-06-26T13:52:53.796Z,102580.45
2019-06-26T13:55:19.676Z,102575.45
2019-06-26T13:57:45.541Z,102579.97
2019-06-26T14:00:11.942Z,102569.05
2019-06-26T14:02:37.762Z,102554.92
2019-06-26T14:05:07.830Z,102563.81
2019-06-26T14:07:36.412Z,102563.44
2019-06-26T14:10:04.261Z,102557.12
2019-06-26T14:12:30.161Z,102549.77
2019-06-26T14:14:58.037Z,102549.98
2019-06-26T14:17:23.859Z,102542.81
2019-06-26T14:19:49.729Z,102542.81
2019-06-26T14:22:15.584Z,102542.11
2019-06-26T14:24:41.434Z,102543.91
2019-06-26T14:27:07.307Z,102540.76
2019-06-26T14:29:33.300Z,102547.47
2019-06-26T14:31:59.165Z,102534.45
2019-06-26T14:34:27.977Z,102538.60
2019-06-26T14:36:53.743Z,102538.75
2019-06-26T14:39:19.593Z,102538.09
2019-06-26T14:41:45.575Z,102539.36
2019-06-26T14:44:11.437Z,102540.67
2019-06-26T14:46:37.275Z,102538.48
2019-06-26T14:49:03.161Z,102550.72
2019-06-26T14:51:43.498Z,102544.92
2019-06-26T14:53:56.742Z,102545.89
2019-06-26T14:56:22.604Z,102552.28
2019-06-26T14:58:48.446Z,102542.41
2019-06-26T15:01:14.402Z,102546.16
2019-06-26T15:03:40.268Z,102541.31
2019-06-26T15:06:15.754Z,102551.30
2019-06-26T15:08:33.877Z,102549.62
2019-06-26T15:10:59.811Z,102547.42
2019-06-26T15:13:25.679Z,102552.28
2019-06-26T15:15:54.652Z,102545.73
2019-06-26T15:18:19.307Z,102546.56
2019-06-26T15:20:45.190Z,102553.77
2019-06-26T15:23:11.090Z,102551.97
2019-06-26T15:25:36.938Z,102549.07
2019-06-26T15:28:02.825Z,102547.52
2019-06-26T15:30:28.779Z,102548.03
2019-06-26T15:32:54.651Z,102554.44
2019-06-26T15:35:20.524Z,102557.28
2019-06-26T15:37:46.489Z,102549.52
2019-06-26T15:40:13.891Z,102553.95
2019-06-26T15:42:40.252Z,102551.37
2019-06-26T15:45:07.919Z,102547.36
2019-06-26T15:47:35.726Z,102553.81
2019-06-26T15:50:04.083Z,102548.17
2019-06-26T15:52:31.565Z,102556.31
2019-06-26T15:54:57.622Z,102552.86
2019-06-26T15:57:23.494Z,102559.13
2019-06-26T15:59:49.364Z,102550.05
2019-06-26T16:02:15.324Z,102548.93
2019-06-26T16:04:41.177Z,102537.39
2019-06-26T16:07:07.055Z,102542.00
2019-06-26T16:09:32.907Z,102541.80
2019-06-26T16:11:59.085Z,102536.34
2019-06-26T16:14:25.087Z,102540.65
2019-06-26T16:16:52.913Z,102536.04
2019-06-26T16:19:23.464Z,102548.86
2019-06-26T16:21:49.315Z,102544.77
2019-06-26T16:24:15.166Z,102545.61
2019-06-26T16:26:41.073Z,102539.52
2019-06-26T16:29:06.931Z,102534.83
2019-06-26T16:31:32.827Z,102541.11
2019-06-26T16:33:58.752Z,102546.50
2019-06-26T16:36:24.646Z,102542.69
2019-06-26T16:38:50.547Z,102547.75
2019-06-26T16:41:16.490Z,102535.89
2019-06-26T16:43:42.373Z,102538.09
2019-06-26T16:46:08.193Z,102548.58
2019-06-26T16:48:34.054Z,102534.58
2019-06-26T16:50:59.908Z,102543.41
2019-06-26T16:53:25.769Z,102541.09
2019-06-26T16:55:53.129Z,102553.48
2019-06-26T16:58:19.018Z,102539.98
2019-06-26T17:00:44.912Z,102550.94
2019-06-26T17:03:11.347Z,102543.69
2019-06-26T17:05:37.234Z,102545.25
2019-06-26T17:08:03.313Z,102546.42
2019-06-26T17:10:29.172Z,102547.88
2019-06-26T17:12:55.049Z,102553.30
2019-06-26T17:15:21.028Z,102547.16
2019-06-26T17:17:46.986Z,102549.98
2019-06-26T17:20:14.992Z,102537.52
2019-06-26T17:22:40.840Z,102546.49
2019-06-26T17:25:07.190Z,102547.70
2019-06-26T17:27:33.164Z,102542.38
2019-06-26T17:29:59.086Z,102541.22
2019-06-26T17:32:25.069Z,102551.17
2019-06-26T17:34:50.952Z,102546.62
2019-06-26T17:37:16.894Z,102552.26
2019-06-26T17:39:42.834Z,102544.42
2019-06-26T17:42:08.708Z,102541.09
2019-06-26T17:44:34.553Z,102549.44
2019-06-26T17:47:00.407Z,102552.10
2019-06-26T17:49:26.288Z,102545.63
2019-06-26T17:51:52.135Z,102539.63
2019-06-26T17:54:18.006Z,102547.14
2019-06-26T17:56:43.862Z,102536.37
2019-06-26T17:59:09.716Z,102542.94
2019-06-26T18:01:35.584Z,102538.81
2019-06-26T18:04:01.442Z,102536.81
2019-06-26T18:06:27.302Z,102543.23
2019-06-26T18:08:53.157Z,102534.84
2019-06-26T18:11:19.019Z,102543.47
2019-06-26T18:13:44.880Z,102544.72
2019-06-26T18:16:10.744Z,102539.75
2019-06-26T18:18:36.840Z,102540.01
2019-06-26T18:21:02.989Z,102535.47
2019-06-26T18:23:37.785Z,102546.58
2019-06-26T18:26:12.369Z,102554.08
2019-06-26T18:28:27.857Z,102551.28
2019-06-26T18:30:53.854Z,102556.24
2019-06-26T18:33:19.709Z,102554.50
2019-06-26T18:35:45.560Z,102548.55
2019-06-26T18:38:11.441Z,102554.70
2019-06-26T18:40:37.301Z,102561.69
2019-06-26T18:43:03.396Z,102548.97
2019-06-26T18:45:32.215Z,102559.37
2019-06-26T18:47:58.066Z,102548.31
2019-06-26T18:50:24.464Z,102556.31
2019-06-26T18:52:52.270Z,102551.81
2019-06-26T18:55:20.029Z,102564.36
2019-06-26T18:57:45.909Z,102560.23
2019-06-26T19:00:12.509Z,102564.19
2019-06-26T19:02:38.402Z,102568.92
2019-06-26T19:05:07.005Z,102563.61
2019-06-26T19:07:33.031Z,102569.11
2019-06-26T19:09:58.949Z,102573.34
2019-06-26T19:12:25.177Z,102563.59
2019-06-26T19:14:51.069Z,102574.48
2019-06-26T19:17:17.175Z,102580.13
2019-06-26T19:19:43.060Z,102579.23
2019-06-26T19:22:08.953Z,102577.70
2019-06-26T19:24:34.812Z,102589.81
2019-06-26T19:27:00.696Z,102590.72
2019-06-26T19:29:26.558Z,102595.58
2019-06-26T19:31:55.467Z,102598.88
2019-06-26T19:34:21.345Z,102603.20
2019-06-26T19:36:50.522Z,102609.67
2019-06-26T19:39:15.085Z,102618.34
2019-06-26T19:41:40.955Z,102618.21
2019-06-26T19:44:08.982Z,102612.48
2019-06-26T19:46:34.750Z,102626.63
2019-06-26T19:49:00.626Z,102622.27
2019-06-26T19:51:26.919Z,102631.72
2019-06-26T19:53:52.814Z,102630.34
2019-06-26T19:56:20.214Z,102635.59
2019-06-26T19:58:46.326Z,102640.64
2019-06-26T20:01:12.216Z,102644.48
2019-06-26T20:03:38.153Z,102640.83
2019-06-26T20:06:04.217Z,102635.78
2019-06-26T20:08:30.086Z,102649.73
2019-06-26T20:10:55.934Z,102647.28
2019-06-26T20:13:21.811Z,102651.64
2019-06-26T20:15:47.663Z,102662.97
2019-06-26T20:18:13.525Z,102661.38
2019-06-26T20:20:39.407Z,102652.86
2019-06-26T20:23:05.252Z,102659.66
2019-06-26T20:25:31.102Z,102669.59
2019-06-26T20:27:57.435Z,102670.80
2019-06-26T20:30:27.079Z,102672.20
2019-06-26T20:32:52.934Z,102667.70
2019-06-26T20:35:18.804Z,102676.33
2019-06-26T20:37:44.673Z,102681.27
2019-06-26T20:40:10.855Z,102682.62
2019-06-26T20:42:36.738Z,102681.73
2019-06-26T20:45:04.109Z,102678.25
2019-06-26T20:47:29.961Z,102680.09
2019-06-26T20:49:55.861Z,102684.64
2019-06-26T20:52:21.842Z,102673.67
2019-06-26T20:55:00.617Z,102686.88
2019-06-26T20:57:16.322Z,102684.48
2019-06-26T20:59:42.189Z,102692.60
2019-06-26T21:02:08.090Z,102693.77
2019-06-26T21:04:33.986Z,102693.92
2019-06-26T21:06:59.904Z,102694.25
2019-06-26T21:09:25.841Z,102695.64
2019-06-26T21:11:51.758Z,102701.07
2019-06-26T21:14:17.738Z,102700.83
2019-06-26T21:16:43.592Z,102698.38
2019-06-26T21:19:09.456Z,102702.54
2019-06-26T21:21:35.496Z,102706.28
2019-06-26T21:24:01.337Z,102705.59
2019-06-26T21:26:27.217Z,102696.45
2019-06-26T21:28:53.093Z,102703.06
2019-06-26T21:31:18.938Z,102708.75
2019-06-26T21:33:44.815Z,102709.41
2019-06-26T21:36:10.855Z,102712.75
2019-06-26T21:38:36.848Z,102712.78
2019-06-26T21:41:02.808Z,102711.03
2019-06-26T21:43:29.588Z,102716.67
2019-06-26T21:45:55.452Z,102727.73
2019-06-26T21:48:21.324Z,102715.33
2019-06-26T21:50:47.192Z,102721.59
2019-06-26T21:53:13.073Z,102723.56
2019-06-26T21:55:39.875Z,102723.56
2019-06-26T21:58:05.862Z,102716.78
2019-06-26T22:00:33.634Z,102716.91
2019-06-26T22:02:59.486Z,102721.27
2019-06-26T22:05:25.763Z,102717.50
2019-06-26T22:07:51.631Z,102727.80
2019-06-26T22:10:17.480Z,102734.52
2019-06-26T22:12:43.325Z,102739.78
2019-06-26T22:15:09.999Z,102736.23
2019-06-26T22:17:35.841Z,102730.59
2019-06-26T22:20:07.971Z,102749.17
2019-06-26T22:22:32.266Z,102740.44
2019-06-26T22:24:58.190Z,102750.84
2019-06-26T22:27:24.012Z,102741.50
2019-06-26T22:29:49.936Z,102750.28
2019-06-26T22:32:15.793Z,102750.31
2019-06-26T22:34:41.808Z,102752.37
2019-06-26T22:37:07.744Z,102763.46
2019-06-26T22:39:33.612Z,102759.72
2019-06-26T22:41:59.463Z,102762.70
2019-06-26T22:44:25.350Z,102770.77
2019-06-26T22:46:51.218Z,102766.97
2019-06-26T22:49:17.061Z,102763.25
2019-06-26T22:51:42.971Z,102771.39
2019-06-26T22:54:08.814Z,102770.97
2019-06-26T22:56:34.668Z,102772.91
2019-06-26T22:59:00.595Z,102767.41
2019-06-26T23:01:26.469Z,102769.48
2019-06-26T23:03:52.317Z,102765.00
2019-06-26T23:06:18.226Z,102769.27
2019-06-26T23:08:44.197Z,102772.63
2019-06-26T23:11:10.057Z,102771.02
2019-06-26T23:13:35.921Z,102775.73
2019-06-26T23:16:01.847Z,102766.16
2019-06-26T23:18:27.665Z,102772.47
2019-06-26T23:20:53.525Z,102769.66
2019-06-26T23:23:19.536Z,102769.20
2019-06-26T23:25:45.386Z,102773.78
2019-06-26T23:28:11.265Z,102776.08
2019-06-26T23:30:37.133Z,102783.30
2019-06-26T23:33:03.010Z,102782.70
2019-06-26T23:35:28.862Z,102774.88
2019-06-26T23:37:54.956Z,102785.96
2019-06-26T23:40:21.132Z,102781.39
2019-06-26T23:42:46.989Z,102784.63
2019-06-26T23:45:13.057Z,102782.93
2019-06-26T23:47:39.107Z,102783.34
2019-06-26T23:50:08.835Z,102774.32
2019-06-26T23:52:34.719Z,102779.00
2019-06-26T23:55:00.622Z,102775.17
2019-06-26T23:57:26.606Z,102773.83
2019-06-26T23:59:53.192Z,102773.04
